createdAt,value
2022-11-23T00:00:04.217Z,6.80
2022-11-23T00:06:08.499Z,6.00
2022-11-23T00:09:11.335Z,6.38
2022-11-23T00:12:13.163Z,5.28
2022-11-23T00:15:15.431Z,5.80
2022-11-23T00:18:17.261Z,4.80
2022-11-23T00:21:19.529Z,5.30
2022-11-23T00:24:21.333Z,4.90
2022-11-23T00:27:23.144Z,4.68
2022-11-23T00:30:24.945Z,5.20
2022-11-23T00:33:27.569Z,5.72
2022-11-23T00:36:29.456Z,5.28
2022-11-23T00:39:34.195Z,5.75
2022-11-23T00:42:38.289Z,5.35
2022-11-23T00:45:40.342Z,6.07
2022-11-23T00:48:48.506Z,5.88
2022-11-23T00:51:50.385Z,6.88
2022-11-23T00:54:53.139Z,6.90
2022-11-23T00:57:55.050Z,7.10
2022-11-23T01:01:06.743Z,7.25
2022-11-23T01:04:10.039Z,6.78
2022-11-23T01:07:11.847Z,7.78
2022-11-23T01:10:15.072Z,8.48
2022-11-23T01:13:16.869Z,7.93
2022-11-23T01:16:24.799Z,8.02
2022-11-23T01:19:26.769Z,7.88
2022-11-23T01:22:28.495Z,8.20
2022-11-23T01:25:30.309Z,8.75
2022-11-23T01:28:33.983Z,9.20
2022-11-23T01:31:35.819Z,8.48
2022-11-23T01:34:37.734Z,9.40
2022-11-23T01:37:39.673Z,9.93
2022-11-23T01:40:44.576Z,8.55
2022-11-23T01:43:46.800Z,7.90
2022-11-23T01:46:48.580Z,7.20
2022-11-23T01:49:52.782Z,8.77
2022-11-23T01:52:55.046Z,9.10
2022-11-23T01:56:00.974Z,9.20
2022-11-23T01:59:07.965Z,8.55
2022-11-23T02:02:09.953Z,9.63
2022-11-23T02:05:11.871Z,9.67
2022-11-23T02:08:16.907Z,9.77
2022-11-23T02:11:19.849Z,11.27
2022-11-23T02:14:23.668Z,10.07
2022-11-23T02:17:29.382Z,10.07
2022-11-23T02:20:31.974Z,9.48
2022-11-23T02:23:59.990Z,11.10
2022-11-23T02:27:03.502Z,10.65
2022-11-23T02:30:05.777Z,10.05
2022-11-23T02:33:07.741Z,10.18
2022-11-23T02:36:46.570Z,10.57
2022-11-23T02:39:53.710Z,11.00
2022-11-23T02:42:55.795Z,9.77
2022-11-23T02:46:01.204Z,9.77
2022-11-23T02:49:03.039Z,10.05
2022-11-23T02:52:05.140Z,11.93
2022-11-23T02:55:07.253Z,11.00
2022-11-23T02:58:09.467Z,11.98
2022-11-23T03:01:11.290Z,10.70
2022-11-23T03:04:13.462Z,14.75
2022-11-23T03:07:15.332Z,10.27
2022-11-23T03:10:18.524Z,10.15
2022-11-23T03:13:22.085Z,10.02
2022-11-23T03:16:24.290Z,9.53
2022-11-23T03:19:26.160Z,14.37
2022-11-23T03:22:28.862Z,10.27
2022-11-23T03:25:31.324Z,12.85
2022-11-23T03:28:33.866Z,12.77
2022-11-23T03:31:35.946Z,11.40
2022-11-23T03:34:40.160Z,11.82
2022-11-23T03:40:46.051Z,11.98
2022-11-23T03:43:54.806Z,10.20
2022-11-23T03:46:57.540Z,12.02
2022-11-23T03:50:01.154Z,11.60
2022-11-23T03:53:06.264Z,9.88
2022-11-23T03:56:08.788Z,8.75
2022-11-23T03:59:16.075Z,8.68
2022-11-23T04:02:17.963Z,9.50
2022-11-23T04:05:32.803Z,9.55
2022-11-23T04:09:00.380Z,10.02
2022-11-23T04:12:20.869Z,8.23
2022-11-23T04:15:22.598Z,11.85
2022-11-23T04:18:24.817Z,18.07
2022-11-23T04:21:27.537Z,8.90
2022-11-23T04:24:29.436Z,9.07
2022-11-23T04:27:34.248Z,7.50
2022-11-23T04:30:36.077Z,8.95
2022-11-23T04:33:37.940Z,9.40
2022-11-23T04:36:40.216Z,9.35
2022-11-23T04:39:43.579Z,8.65
2022-11-23T04:43:00.217Z,9.95
2022-11-23T04:46:04.775Z,9.63
2022-11-23T04:49:09.228Z,10.02
2022-11-23T04:52:12.550Z,20.92
2022-11-23T04:55:20.364Z,11.18
2022-11-23T04:58:34.490Z,9.35
2022-11-23T05:01:37.195Z,8.25
2022-11-23T05:05:14.184Z,9.85
2022-11-23T05:08:17.443Z,8.80
2022-11-23T05:11:42.452Z,8.65
2022-11-23T05:14:45.784Z,10.60
2022-11-23T05:17:57.737Z,8.50
2022-11-23T05:21:01.187Z,10.85
2022-11-23T05:27:06.431Z,9.13
2022-11-23T05:30:09.057Z,12.00
2022-11-23T05:33:12.476Z,10.15
2022-11-23T05:36:15.189Z,14.40
2022-11-23T05:39:17.497Z,16.58
2022-11-23T05:42:21.067Z,10.13
2022-11-23T05:45:24.290Z,11.38
2022-11-23T05:48:28.931Z,9.30
2022-11-23T05:51:32.872Z,9.27
2022-11-23T05:54:35.472Z,9.13
2022-11-23T05:57:42.799Z,8.25
2022-11-23T06:00:46.229Z,9.05
2022-11-23T06:03:52.284Z,8.32
2022-11-23T06:07:00.980Z,8.65
2022-11-23T06:10:09.833Z,9.80
2022-11-23T06:13:15.266Z,9.60
2022-11-23T06:16:19.543Z,9.07
2022-11-23T06:19:34.148Z,9.13
2022-11-23T06:22:37.097Z,9.55
2022-11-23T06:25:41.341Z,8.43
2022-11-23T06:29:11.975Z,8.85
2022-11-23T06:32:15.210Z,8.52
2022-11-23T06:35:17.957Z,8.77
2022-11-23T06:38:20.411Z,8.70
2022-11-23T06:41:30.941Z,9.18
2022-11-23T06:44:34.454Z,9.52
2022-11-23T06:47:36.421Z,9.32
2022-11-23T06:53:41.585Z,10.90
2022-11-23T06:56:44.752Z,12.80
2022-11-23T06:59:47.011Z,10.13
2022-11-23T07:02:55.046Z,8.93
2022-11-23T07:05:59.170Z,8.80
2022-11-23T07:09:03.775Z,6.57
2022-11-23T07:12:29.792Z,7.70
2022-11-23T07:15:36.263Z,9.05
2022-11-23T07:18:38.155Z,9.60
2022-11-23T07:21:41.342Z,9.48
2022-11-23T07:24:46.707Z,8.63
2022-11-23T07:27:55.329Z,9.38
2022-11-23T07:30:57.861Z,8.85
2022-11-23T07:33:59.709Z,9.15
2022-11-23T07:37:03.292Z,9.20
2022-11-23T07:40:08.509Z,8.95
2022-11-23T07:43:11.178Z,9.73
2022-11-23T07:46:13.046Z,9.68
2022-11-23T07:49:14.815Z,9.88
2022-11-23T07:52:16.707Z,9.68
2022-11-23T07:55:18.609Z,10.05
2022-11-23T07:58:20.430Z,8.95
2022-11-23T08:01:22.302Z,9.80
2022-11-23T08:04:24.360Z,10.32
2022-11-23T08:07:26.148Z,8.83
2022-11-23T08:10:29.302Z,8.52
2022-11-23T08:13:32.199Z,8.15
2022-11-23T08:16:34.065Z,8.38
2022-11-23T08:19:36.101Z,9.05
2022-11-23T08:22:37.846Z,7.73
2022-11-23T08:25:39.707Z,7.88
2022-11-23T08:28:41.489Z,8.82
2022-11-23T08:31:43.901Z,8.77
2022-11-23T08:34:45.732Z,9.27
2022-11-23T08:37:47.589Z,8.77
2022-11-23T08:40:49.583Z,8.57
2022-11-23T08:43:51.696Z,8.77
2022-11-23T08:46:54.345Z,10.07
2022-11-23T08:49:56.143Z,10.10
2022-11-23T08:52:59.810Z,9.82
2022-11-23T08:56:02.893Z,9.57
2022-11-23T08:59:04.650Z,13.35
2022-11-23T09:02:06.575Z,10.50
2022-11-23T09:05:09.478Z,11.50
2022-11-23T09:11:14.336Z,10.77
2022-11-23T09:17:17.903Z,10.77
2022-11-23T09:20:19.685Z,10.02
2022-11-23T09:23:21.602Z,11.20
2022-11-23T09:26:23.478Z,11.27
2022-11-23T09:29:25.630Z,11.10
2022-11-23T09:32:27.825Z,11.10
2022-11-23T09:35:29.917Z,10.38
2022-11-23T09:38:55.722Z,9.43
2022-11-23T09:42:15.541Z,10.13
2022-11-23T09:45:30.547Z,9.85
2022-11-23T09:48:45.241Z,9.77
2022-11-23T09:51:48.195Z,10.45
2022-11-23T09:57:59.865Z,10.60
2022-11-23T10:01:16.144Z,9.63
2022-11-23T10:04:20.290Z,10.93
2022-11-23T10:07:25.143Z,9.95
2022-11-23T10:10:41.558Z,10.15
2022-11-23T10:14:02.312Z,10.85
2022-11-23T10:17:22.263Z,10.38
2022-11-23T10:20:26.818Z,9.68
2022-11-23T10:24:01.052Z,9.95
2022-11-23T10:27:04.122Z,10.27
2022-11-23T10:30:12.910Z,9.63
2022-11-23T10:33:30.887Z,8.85
2022-11-23T10:36:36.067Z,7.50
2022-11-23T10:39:38.221Z,8.38
2022-11-23T10:42:47.526Z,7.75
2022-11-23T10:45:49.289Z,8.95
2022-11-23T10:48:52.788Z,8.65
2022-11-23T10:51:56.257Z,8.50
2022-11-23T10:55:00.319Z,8.77
2022-11-23T10:58:02.221Z,8.35
2022-11-23T11:01:24.979Z,8.48
2022-11-23T11:04:29.181Z,9.13
2022-11-23T11:07:31.600Z,8.73
2022-11-23T11:10:40.622Z,8.75
2022-11-23T11:13:47.844Z,11.13
2022-11-23T11:16:56.775Z,10.35
2022-11-23T11:19:59.604Z,9.98
2022-11-23T11:23:17.582Z,9.52
2022-11-23T11:26:22.876Z,7.93
2022-11-23T11:29:40.016Z,7.63
2022-11-23T11:32:54.097Z,7.80
2022-11-23T11:35:56.930Z,9.10
2022-11-23T11:39:17.551Z,8.90
2022-11-23T11:42:33.607Z,7.35
2022-11-23T11:45:54.495Z,7.38
2022-11-23T11:49:11.169Z,11.15
2022-11-23T11:52:22.274Z,9.50
2022-11-23T11:55:39.487Z,8.23
2022-11-23T11:58:50.926Z,7.85
2022-11-23T12:02:14.537Z,7.80
2022-11-23T12:05:27.379Z,9.13
2022-11-23T12:09:12.852Z,8.02
2022-11-23T12:12:18.154Z,7.80
2022-11-23T12:15:48.230Z,7.93
2022-11-23T12:19:01.210Z,8.20
2022-11-23T12:22:21.130Z,9.13
